女満別 の空港の天気 - METARとTAF

女満別空港 ( RJCM / MMB ) - 北海道大空町
飛行場実況気象(Metar)
観測時間06/23 10:30 JST (06/23 01:30 UTC)
風向・風速北北東 3m/s
視程8000m
天気現象
少しの雲 雲底高度 150m
全天の4割程度の雲 雲底高度 210m
全天の8割程度の雲 雲底高度 370m
気温14℃
湿度88%
気圧1006hPa
METARRJCM 230130Z 03005KT 350V060 8000 FEW005 SCT007 BKN012 14/12 Q1006 RMK 1ST005 3ST007 6ST012 A2971
過去の天気等 Google飛行場航空写真 Wunderground天気予報

過去48時間のMETAR

飛行場予報(TAF)
発表時間: 6/23 08:13 JST (6/22 23:13 UTC)
予報対象時間: 23日9時 JST ~ 24日15時 JST
風向・風速北北東 5m/s
視程10km以上
少しの雲 雲底高度 210m
全天の4割程度の雲 雲底高度 610m
23日9時 JST ~ 23日12時 JST に一時的に
視程4,000m
天気現象もや
少しの雲 雲底高度 90m
全天の8割程度の雲 雲底高度 210m
23日21時 JST ~ 23日24時 JST に徐々に
風向・風速南 2m/s
24日3時 JST ~ 24日6時 JST に一時的に
視程4,000m
天気現象弱いしゅう雨 もや
少しの雲 雲底高度 150m
全天の8割程度の雲 雲底高度 240m
24日9時 JST ~ 24日12時 JST に徐々に
風向・風速北東 4m/s
TAF RJCM 222313Z 2300/2406 03010KT 9999 FEW007 SCT020
TEMPO 2300/2303 4000 BR FEW003 BKN007
BECMG 2312/2315 17004KT
TEMPO 2318/2321 4000 -SHRA BR FEW005 BKN008
BECMG 2400/2403 04007KT
日本の空港のMETAR・TAFへのリンク

RJTT 東京国際空港
RJAA 新東京国際空港
RJBB 関西国際空港
RJOO 大阪空港
RJGG 中部国際空港
RJCC 新千歳空港
RJFF 福岡空港
ROAH 那覇空港


RJEC 旭川空港
RJCH 函館空港
RJCK 釧路空港
RJCM 女満別空港
RJCB 帯広空港
RJSA 青森空港
RJSS 仙台空港
RJSK 秋田空港
RJSF 福島空港
RJAH 茨城空港
RJSN 新潟空港
RJNT 富山空港
RJNK 小松飛行場
RJNS 静岡空港
RJOH 美保飛行場
RJOC 出雲空港
RJOB 岡山空港
RJOA 広島空港
RJOI 岩国飛行場
RJOT 高松空港
RJOM 松山空港
RJOK 高知空港
RJFR 北九州空港
RJFT 熊本空港
RJFU 長崎空港
RJFS 佐賀空港
RJFO 大分空港
RJFM 宮崎空港
RJFK 鹿児島空港
ROIG 石垣島空港
RJTY 横田飛行場
ROTM 普天間飛行場
RODN 嘉手納飛行場